createdAt,value
2017-10-02T00:00:40.178Z,9.83
2017-10-02T00:03:07.622Z,8.53
2017-10-02T00:05:35.070Z,9.60
2017-10-02T00:08:02.533Z,8.30
2017-10-02T00:10:29.981Z,9.17
2017-10-02T00:12:57.451Z,7.87
2017-10-02T00:15:24.906Z,11.83
2017-10-02T00:17:52.365Z,8.77
2017-10-02T00:20:19.908Z,9.10
2017-10-02T00:22:47.397Z,10.60
2017-10-02T00:25:15.611Z,7.90
2017-10-02T00:27:43.066Z,6.50
2017-10-02T00:30:10.530Z,7.50
2017-10-02T00:32:37.981Z,6.03
2017-10-02T00:35:05.442Z,6.20
2017-10-02T00:37:32.932Z,9.90
2017-10-02T00:40:00.481Z,7.83
2017-10-02T00:42:27.938Z,6.70
2017-10-02T00:44:55.398Z,8.30
2017-10-02T00:47:22.844Z,9.60
2017-10-02T00:49:50.298Z,7.10
2017-10-02T00:52:17.753Z,9.63
2017-10-02T00:54:45.231Z,7.30
2017-10-02T00:57:12.686Z,6.77
2017-10-02T00:59:40.151Z,6.27
2017-10-02T01:02:07.600Z,5.53
2017-10-02T01:04:35.150Z,7.30
2017-10-02T01:07:02.705Z,5.40
2017-10-02T01:09:30.267Z,6.23
2017-10-02T01:11:57.712Z,6.83
2017-10-02T01:14:25.195Z,7.90
2017-10-02T01:16:52.658Z,9.13
2017-10-02T01:19:20.199Z,7.57
2017-10-02T01:21:47.661Z,10.63
2017-10-02T01:24:15.116Z,9.05
2017-10-02T01:26:42.572Z,9.70
2017-10-02T01:29:10.030Z,8.37
2017-10-02T01:31:40.849Z,10.77
2017-10-02T01:34:08.877Z,10.30
2017-10-02T01:36:37.210Z,10.57
2017-10-02T01:39:04.653Z,9.20
2017-10-02T01:41:32.122Z,7.90
2017-10-02T01:43:59.569Z,11.50
2017-10-02T01:46:27.025Z,10.87
2017-10-02T01:48:54.590Z,7.97
2017-10-02T01:51:22.146Z,8.20
2017-10-02T01:53:49.605Z,8.77
2017-10-02T01:56:17.061Z,8.10
2017-10-02T01:58:44.526Z,8.90
2017-10-02T02:01:12.084Z,6.00
2017-10-02T02:03:39.541Z,5.63
2017-10-02T02:06:06.997Z,8.63
2017-10-02T02:08:34.462Z,6.23
2017-10-02T02:11:02.004Z,6.93
2017-10-02T02:13:29.478Z,12.90
2017-10-02T02:15:56.925Z,6.93
2017-10-02T02:18:24.391Z,6.12
2017-10-02T02:20:51.844Z,6.15
2017-10-02T02:23:19.306Z,6.57
2017-10-02T02:25:50.405Z,6.60
2017-10-02T02:28:19.505Z,9.85
2017-10-02T02:30:46.961Z,8.40
2017-10-02T02:33:14.434Z,7.07
2017-10-02T02:35:41.916Z,13.82
2017-10-02T02:38:09.354Z,8.43
2017-10-02T02:40:36.809Z,7.37
2017-10-02T02:43:04.263Z,6.60
2017-10-02T02:45:31.720Z,7.62
2017-10-02T02:47:59.194Z,7.30
2017-10-02T02:50:26.741Z,9.13
2017-10-02T02:52:54.197Z,6.43
2017-10-02T02:55:21.657Z,6.80
2017-10-02T02:57:50.798Z,8.05
2017-10-02T03:00:18.255Z,7.07
2017-10-02T03:02:45.710Z,7.40
2017-10-02T03:05:13.167Z,11.20
2017-10-02T03:07:40.614Z,7.70
2017-10-02T03:10:08.335Z,8.48
2017-10-02T03:12:35.794Z,7.82
2017-10-02T03:15:03.355Z,10.57
2017-10-02T03:17:30.815Z,11.37
2017-10-02T03:19:58.293Z,12.20
2017-10-02T03:22:25.733Z,15.60
2017-10-02T03:24:53.198Z,9.70
2017-10-02T03:27:21.437Z,16.25
2017-10-02T03:29:48.917Z,7.93
2017-10-02T03:32:16.373Z,7.50
2017-10-02T03:34:43.821Z,7.47
2017-10-02T03:37:11.292Z,7.15
2017-10-02T03:39:38.847Z,10.53
2017-10-02T03:42:06.311Z,7.60
2017-10-02T03:44:33.748Z,9.43
2017-10-02T03:47:01.214Z,9.23
2017-10-02T03:49:28.661Z,8.20
2017-10-02T03:51:56.129Z,9.93
2017-10-02T03:54:23.585Z,9.65
2017-10-02T03:56:51.136Z,9.68
2017-10-02T03:59:18.589Z,8.00
2017-10-02T04:01:46.046Z,8.32
2017-10-02T04:04:13.506Z,14.82
2017-10-02T04:06:41.066Z,7.97
2017-10-02T04:09:08.982Z,11.12
2017-10-02T04:11:37.108Z,9.85
2017-10-02T04:14:04.760Z,10.82
2017-10-02T04:16:32.217Z,11.10
2017-10-02T04:19:05.720Z,9.20
2017-10-02T04:21:35.731Z,7.50
2017-10-02T04:24:03.207Z,15.10
2017-10-02T04:26:30.657Z,8.85
2017-10-02T04:28:58.117Z,9.98
2017-10-02T04:31:25.570Z,13.35
2017-10-02T04:33:53.029Z,9.13
2017-10-02T04:36:20.481Z,10.15
2017-10-02T04:38:48.034Z,12.45
2017-10-02T04:41:15.502Z,11.50
2017-10-02T04:43:43.050Z,12.70
2017-10-02T04:46:10.506Z,12.20
2017-10-02T04:48:37.961Z,10.20
2017-10-02T04:51:05.421Z,8.27
2017-10-02T04:53:34.406Z,9.63
2017-10-02T04:56:01.868Z,8.73
2017-10-02T04:58:29.434Z,9.48
2017-10-02T05:00:56.894Z,10.35
2017-10-02T05:03:24.353Z,11.60
2017-10-02T05:05:51.822Z,15.55
2017-10-02T05:08:20.074Z,16.95
2017-10-02T05:10:48.320Z,13.80
2017-10-02T05:13:15.777Z,13.57
2017-10-02T05:15:43.246Z,13.15
2017-10-02T05:18:10.710Z,13.90
2017-10-02T05:20:38.168Z,16.00
2017-10-02T05:23:05.637Z,14.55
2017-10-02T05:25:33.112Z,11.75
2017-10-02T05:28:00.566Z,14.03
2017-10-02T05:30:28.041Z,13.30
2017-10-02T05:32:55.502Z,22.30
2017-10-02T05:35:22.957Z,11.50
2017-10-02T05:37:50.430Z,14.45
2017-10-02T05:40:17.936Z,9.55
2017-10-02T05:42:45.405Z,13.52
2017-10-02T05:45:13.642Z,12.07
2017-10-02T05:47:41.106Z,12.23
2017-10-02T05:50:08.557Z,9.63
2017-10-02T05:52:36.033Z,9.55
2017-10-02T05:55:03.498Z,12.02
2017-10-02T05:57:30.971Z,10.93
2017-10-02T05:59:58.421Z,10.00
2017-10-02T06:02:25.880Z,8.50
2017-10-02T06:04:53.342Z,7.30
2017-10-02T06:07:20.801Z,7.23
2017-10-02T06:09:49.017Z,8.77
2017-10-02T06:12:16.473Z,6.83
2017-10-02T06:14:43.933Z,9.33
2017-10-02T06:17:11.518Z,9.90
2017-10-02T06:19:38.977Z,12.60
2017-10-02T06:22:06.530Z,9.77
2017-10-02T06:24:34.098Z,10.67
2017-10-02T06:27:01.548Z,10.40
2017-10-02T06:29:29.005Z,8.00
2017-10-02T06:31:56.458Z,9.65
2017-10-02T06:34:23.926Z,9.67
2017-10-02T06:36:51.382Z,9.57
2017-10-02T06:39:18.841Z,14.00
2017-10-02T06:41:47.814Z,10.03
2017-10-02T06:44:15.378Z,10.03
2017-10-02T06:46:42.833Z,9.30
2017-10-02T06:49:10.294Z,10.80
2017-10-02T06:51:37.741Z,10.80
2017-10-02T06:54:05.319Z,15.10
2017-10-02T06:56:32.775Z,15.13
2017-10-02T06:59:00.242Z,15.65
2017-10-02T07:01:27.795Z,10.65
2017-10-02T07:03:55.342Z,10.25
2017-10-02T07:06:22.799Z,13.10
2017-10-02T07:08:50.260Z,12.57
2017-10-02T07:11:17.729Z,11.13
2017-10-02T07:13:45.169Z,10.43
2017-10-02T07:16:12.644Z,8.83
2017-10-02T07:18:40.103Z,10.70
2017-10-02T07:21:07.559Z,11.80
2017-10-02T07:23:35.022Z,17.13
2017-10-02T07:26:02.481Z,14.37
2017-10-02T07:28:30.702Z,11.03
2017-10-02T07:30:58.152Z,11.93
2017-10-02T07:33:25.623Z,13.30
2017-10-02T07:35:53.073Z,10.93
2017-10-02T07:38:20.525Z,10.20
2017-10-02T07:40:47.997Z,12.60
2017-10-02T07:43:15.462Z,11.47
2017-10-02T07:45:42.926Z,14.00
2017-10-02T07:48:10.374Z,8.50
2017-10-02T07:50:37.849Z,6.40
2017-10-02T07:53:05.306Z,14.10
2017-10-02T07:55:32.757Z,7.13
2017-10-02T07:58:00.307Z,7.00
2017-10-02T08:00:27.762Z,4.23
2017-10-02T08:02:55.222Z,3.90
2017-10-02T08:05:22.680Z,3.57
2017-10-02T08:07:50.133Z,4.10
2017-10-02T08:10:17.587Z,3.90
2017-10-02T08:12:45.142Z,3.50
2017-10-02T08:15:12.593Z,3.80
2017-10-02T08:17:40.065Z,2.90
2017-10-02T08:20:07.514Z,5.07
2017-10-02T08:22:34.972Z,6.87
2017-10-02T08:25:02.423Z,2.90
2017-10-02T08:27:29.876Z,2.23
2017-10-02T08:29:57.345Z,2.50
2017-10-02T08:32:24.803Z,1.70
2017-10-02T08:34:52.254Z,3.63
2017-10-02T08:37:19.930Z,2.53
2017-10-02T08:39:47.390Z,1.60
2017-10-02T08:42:14.840Z,2.90
2017-10-02T08:44:42.303Z,8.20
2017-10-02T08:47:09.758Z,2.47
2017-10-02T08:49:37.217Z,2.47
2017-10-02T08:52:04.660Z,1.93
2017-10-02T08:54:32.134Z,3.00
2017-10-02T08:57:01.098Z,5.30
2017-10-02T08:59:28.558Z,4.37
2017-10-02T09:01:56.013Z,7.37
2017-10-02T09:04:23.478Z,3.60
2017-10-02T09:06:50.938Z,4.93
2017-10-02T09:09:18.402Z,2.17
2017-10-02T09:11:45.845Z,4.10
2017-10-02T09:14:13.306Z,3.07
2017-10-02T09:16:40.768Z,1.63
2017-10-02T09:19:08.332Z,4.60
2017-10-02T09:21:35.777Z,2.70
2017-10-02T09:24:03.343Z,4.60
2017-10-02T09:26:30.797Z,1.70
2017-10-02T09:28:58.253Z,2.53
2017-10-02T09:31:25.714Z,3.70
2017-10-02T09:33:53.169Z,2.80
2017-10-02T09:36:20.620Z,2.30
2017-10-02T09:38:48.073Z,1.70
2017-10-02T09:41:15.530Z,4.50
2017-10-02T09:43:42.973Z,4.13
2017-10-02T09:46:10.443Z,2.30
2017-10-02T09:48:38.016Z,2.43
2017-10-02T09:51:05.470Z,2.47
2017-10-02T09:53:34.433Z,2.50
2017-10-02T09:56:01.897Z,1.40
2017-10-02T09:58:29.346Z,1.40
2017-10-02T10:00:56.810Z,3.90
2017-10-02T10:03:24.267Z,2.93
2017-10-02T10:05:51.729Z,2.47
2017-10-02T10:08:19.188Z,6.10
2017-10-02T10:10:46.649Z,2.80
2017-10-02T10:13:14.097Z,1.50
2017-10-02T10:15:41.674Z,3.00
2017-10-02T10:18:09.126Z,1.90
2017-10-02T10:20:36.597Z,2.80
2017-10-02T10:23:04.047Z,1.60
2017-10-02T10:25:31.519Z,2.50
2017-10-02T10:27:59.735Z,3.63
2017-10-02T10:30:27.232Z,1.73
2017-10-02T10:32:54.696Z,2.27
2017-10-02T10:35:22.141Z,1.90
2017-10-02T10:37:49.615Z,2.37
2017-10-02T10:40:17.069Z,4.40
2017-10-02T10:42:44.534Z,1.97
2017-10-02T10:45:12.750Z,2.80
2017-10-02T10:47:40.209Z,5.67
2017-10-02T10:50:07.661Z,3.67
2017-10-02T10:52:35.123Z,2.97
2017-10-02T10:55:02.578Z,1.97
2017-10-02T10:57:30.074Z,4.37
2017-10-02T10:59:57.519Z,2.63
2017-10-02T11:02:24.978Z,1.90
2017-10-02T11:04:52.435Z,1.70
2017-10-02T11:07:19.985Z,3.27
2017-10-02T11:09:47.554Z,2.60
2017-10-02T11:12:15.026Z,3.37
2017-10-02T11:14:42.476Z,3.73
2017-10-02T11:17:10.021Z,3.83
2017-10-02T11:19:37.577Z,1.63
2017-10-02T11:22:05.032Z,2.37
2017-10-02T11:24:32.496Z,1.87
2017-10-02T11:26:59.946Z,1.70
2017-10-02T11:29:27.506Z,1.47
2017-10-02T11:31:54.949Z,1.10
2017-10-02T11:34:22.529Z,1.47
2017-10-02T11:36:49.976Z,3.03
2017-10-02T11:39:17.447Z,1.77
2017-10-02T11:41:44.992Z,2.57
2017-10-02T11:44:12.454Z,1.30
2017-10-02T11:46:40.014Z,3.90
2017-10-02T11:49:07.574Z,2.20
2017-10-02T11:51:35.031Z,6.27
2017-10-02T11:54:02.494Z,1.80
2017-10-02T11:56:29.944Z,3.13
2017-10-02T11:58:57.499Z,1.30
2017-10-02T12:01:24.953Z,3.43
2017-10-02T12:03:52.515Z,2.50
2017-10-02T12:06:19.982Z,1.20
2017-10-02T12:08:47.442Z,1.70
2017-10-02T12:11:15.677Z,2.67
2017-10-02T12:13:43.134Z,2.27
2017-10-02T12:16:10.607Z,1.90
2017-10-02T12:18:38.052Z,1.80
2017-10-02T12:21:05.519Z,2.70
2017-10-02T12:23:32.989Z,2.03
2017-10-02T12:26:00.460Z,8.47
2017-10-02T12:28:27.921Z,2.63
2017-10-02T12:30:55.377Z,2.00
2017-10-02T12:33:22.834Z,1.50
2017-10-02T12:35:50.302Z,3.00
2017-10-02T12:38:18.545Z,1.67
2017-10-02T12:40:46.001Z,1.50
2017-10-02T12:43:13.463Z,1.63
2017-10-02T12:45:40.941Z,1.40
2017-10-02T12:48:09.166Z,1.97
2017-10-02T12:50:36.629Z,1.63
2017-10-02T12:53:04.085Z,1.80
2017-10-02T12:55:31.538Z,3.33
2017-10-02T12:57:59.012Z,3.10
2017-10-02T13:00:26.472Z,1.43
2017-10-02T13:02:53.929Z,1.63
2017-10-02T13:05:21.373Z,2.87
2017-10-02T13:07:48.840Z,1.77
2017-10-02T13:10:16.285Z,2.00
2017-10-02T13:12:43.861Z,1.43
2017-10-02T13:15:11.320Z,3.77
2017-10-02T13:17:38.782Z,1.57
2017-10-02T13:20:06.324Z,2.07
2017-10-02T13:22:33.785Z,3.67
2017-10-02T13:25:01.238Z,1.43
2017-10-02T13:27:28.680Z,1.77
2017-10-02T13:29:56.136Z,2.87
2017-10-02T13:32:23.590Z,2.00
2017-10-02T13:34:51.073Z,2.63
2017-10-02T13:37:18.526Z,3.30
2017-10-02T13:39:46.096Z,1.83
2017-10-02T13:42:13.539Z,1.70
2017-10-02T13:44:41.015Z,1.60
2017-10-02T13:47:08.454Z,4.83
2017-10-02T13:49:35.917Z,1.07
2017-10-02T13:52:03.376Z,3.37
2017-10-02T13:54:30.845Z,3.50
2017-10-02T13:56:59.821Z,1.67
2017-10-02T13:59:27.288Z,1.80
2017-10-02T14:01:54.740Z,3.47
2017-10-02T14:04:22.201Z,1.80
2017-10-02T14:06:49.645Z,2.77
2017-10-02T14:09:17.102Z,1.97
2017-10-02T14:11:44.560Z,4.93
2017-10-02T14:14:12.017Z,5.80
2017-10-02T14:16:39.475Z,4.93
2017-10-02T14:19:06.929Z,7.70
2017-10-02T14:21:34.377Z,2.30
2017-10-02T14:24:01.828Z,6.67
2017-10-02T14:26:29.294Z,2.57
2017-10-02T14:28:56.745Z,1.63
2017-10-02T14:31:24.193Z,5.30
2017-10-02T14:33:51.650Z,3.13
2017-10-02T14:36:19.106Z,2.33
2017-10-02T14:38:46.565Z,6.30
2017-10-02T14:41:14.034Z,1.10
2017-10-02T14:43:41.483Z,0.90
2017-10-02T14:46:08.942Z,0.90
2017-10-02T14:48:36.399Z,1.10
2017-10-02T14:51:03.857Z,1.10
2017-10-02T14:53:31.314Z,1.90
2017-10-02T14:55:58.781Z,0.83
2017-10-02T14:58:26.333Z,0.70
2017-10-02T15:00:53.789Z,0.93
2017-10-02T15:03:21.258Z,0.80
2017-10-02T15:05:48.726Z,1.03
2017-10-02T15:08:16.177Z,2.23
2017-10-02T15:10:43.621Z,0.77
2017-10-02T15:13:11.089Z,0.90
2017-10-02T15:15:38.539Z,1.87
2017-10-02T15:18:05.997Z,0.87
2017-10-02T15:20:33.542Z,0.80
2017-10-02T15:23:01.013Z,0.90
2017-10-02T15:25:28.466Z,1.07
2017-10-02T15:27:55.931Z,0.80
2017-10-02T15:30:24.161Z,0.67
2017-10-02T15:32:51.623Z,0.80
2017-10-02T15:35:19.086Z,0.70
2017-10-02T15:37:46.546Z,2.97
2017-10-02T15:40:14.009Z,1.47
2017-10-02T15:42:41.483Z,1.50
2017-10-02T15:45:08.926Z,0.97
2017-10-02T15:47:36.486Z,0.87
2017-10-02T15:50:03.935Z,3.33
2017-10-02T15:52:31.507Z,1.00
2017-10-02T15:54:58.957Z,0.80
2017-10-02T15:57:26.517Z,0.80
2017-10-02T15:59:53.978Z,0.90
2017-10-02T16:02:21.430Z,0.80
2017-10-02T16:04:48.894Z,0.80
2017-10-02T16:07:16.441Z,1.70
2017-10-02T16:09:43.906Z,1.60
2017-10-02T16:12:11.463Z,2.03
2017-10-02T16:14:38.930Z,1.63
2017-10-02T16:17:06.478Z,1.23
2017-10-02T16:19:33.937Z,1.17
2017-10-02T16:22:01.386Z,0.90
2017-10-02T16:24:28.849Z,0.90
2017-10-02T16:26:56.309Z,1.33
2017-10-02T16:29:24.583Z,0.70
2017-10-02T16:31:52.146Z,1.07
2017-10-02T16:34:19.604Z,1.90
2017-10-02T16:36:47.816Z,1.03
2017-10-02T16:39:15.342Z,2.13
2017-10-02T16:41:42.804Z,1.10
2017-10-02T16:44:10.342Z,3.10
2017-10-02T16:46:37.815Z,0.90
2017-10-02T16:49:05.354Z,1.00
2017-10-02T16:51:32.813Z,3.10
2017-10-02T16:54:00.267Z,1.47
2017-10-02T16:56:30.576Z,2.07
2017-10-02T16:58:59.097Z,1.10
2017-10-02T17:01:26.555Z,2.60
2017-10-02T17:03:54.010Z,2.23
2017-10-02T17:06:21.471Z,1.77
2017-10-02T17:08:49.689Z,2.53
2017-10-02T17:11:17.145Z,1.30
2017-10-02T17:13:44.591Z,2.13
2017-10-02T17:16:12.168Z,1.03
2017-10-02T17:18:39.618Z,1.10
2017-10-02T17:21:07.090Z,0.80
2017-10-02T17:23:34.566Z,1.00
2017-10-02T17:26:02.014Z,0.90
2017-10-02T17:28:30.594Z,0.70
2017-10-02T17:30:58.167Z,2.90
2017-10-02T17:33:26.562Z,0.97
2017-10-02T17:35:53.997Z,1.83
2017-10-02T17:38:21.549Z,1.40
2017-10-02T17:40:49.051Z,1.30
2017-10-02T17:43:17.271Z,1.17
2017-10-02T17:45:44.741Z,2.07
2017-10-02T17:48:12.202Z,1.17
2017-10-02T17:50:39.665Z,2.00
2017-10-02T17:53:07.115Z,1.17
2017-10-02T17:55:34.570Z,1.20
2017-10-02T17:58:02.137Z,2.20
2017-10-02T18:00:29.590Z,1.20
2017-10-02T18:02:57.050Z,1.30
2017-10-02T18:05:24.502Z,1.07
2017-10-02T18:07:51.970Z,1.00
2017-10-02T18:10:19.523Z,1.70
2017-10-02T18:12:46.977Z,1.33
2017-10-02T18:15:15.203Z,1.97
2017-10-02T18:17:42.654Z,1.20
2017-10-02T18:20:10.104Z,1.40
2017-10-02T18:22:37.560Z,2.33
2017-10-02T18:25:05.022Z,1.80
2017-10-02T18:27:32.474Z,1.10
2017-10-02T18:29:59.925Z,2.37
2017-10-02T18:32:28.157Z,2.00
2017-10-02T18:34:55.613Z,1.70
2017-10-02T18:37:23.068Z,2.80
2017-10-02T18:39:50.526Z,0.93
2017-10-02T18:42:18.098Z,1.20
2017-10-02T18:44:45.572Z,3.83
2017-10-02T18:47:13.101Z,1.33
2017-10-02T18:49:40.557Z,1.40
2017-10-02T18:52:08.117Z,1.10
2017-10-02T18:54:35.677Z,1.50
2017-10-02T18:57:03.125Z,0.90
2017-10-02T18:59:30.586Z,2.50
2017-10-02T19:01:58.150Z,1.23
2017-10-02T19:04:25.615Z,1.00
2017-10-02T19:06:53.165Z,1.80
2017-10-02T19:09:20.610Z,1.50
2017-10-02T19:11:48.065Z,0.97
2017-10-02T19:14:15.547Z,3.77
2017-10-02T19:16:42.993Z,5.17
2017-10-02T19:19:10.443Z,1.40
2017-10-02T19:21:37.898Z,1.20
2017-10-02T19:24:05.353Z,4.20
2017-10-02T19:26:32.810Z,2.83
2017-10-02T19:29:00.279Z,3.37
2017-10-02T19:31:27.747Z,6.87
2017-10-02T19:33:55.197Z,4.10
2017-10-02T19:36:22.662Z,1.87
2017-10-02T19:38:50.206Z,3.60
2017-10-02T19:41:17.661Z,1.20
2017-10-02T19:43:46.217Z,1.20
2017-10-02T19:46:13.703Z,1.50
2017-10-02T19:48:41.249Z,1.40
2017-10-02T19:51:08.818Z,2.37
2017-10-02T19:53:36.269Z,1.53
2017-10-02T19:56:03.730Z,1.50
2017-10-02T19:58:31.198Z,1.60
2017-10-02T20:00:58.746Z,1.20
2017-10-02T20:03:26.297Z,1.50
2017-10-02T20:05:53.750Z,1.20
2017-10-02T20:08:21.898Z,2.07
2017-10-02T20:10:49.336Z,1.53
2017-10-02T20:13:16.802Z,2.00
2017-10-02T20:15:44.244Z,3.30
2017-10-02T20:18:11.718Z,3.20
2017-10-02T20:20:39.169Z,3.57
2017-10-02T20:23:06.637Z,4.33
2017-10-02T20:25:34.081Z,3.60
2017-10-02T20:28:01.551Z,3.13
2017-10-02T20:30:29.036Z,5.93
2017-10-02T20:32:56.593Z,2.33
2017-10-02T20:35:25.660Z,2.87
2017-10-02T20:37:53.126Z,4.00
2017-10-02T20:40:20.581Z,3.53
2017-10-02T20:42:48.033Z,2.37
2017-10-02T20:45:15.500Z,3.03
2017-10-02T20:47:42.978Z,3.40
2017-10-02T20:50:10.536Z,4.10
2017-10-02T20:52:37.981Z,3.17
2017-10-02T20:55:05.442Z,3.60
2017-10-02T20:57:33.001Z,3.50
2017-10-02T21:00:00.458Z,5.03
2017-10-02T21:02:27.917Z,4.03
2017-10-02T21:04:55.373Z,3.03
2017-10-02T21:07:22.822Z,6.87
2017-10-02T21:09:50.388Z,4.70
2017-10-02T21:12:17.842Z,3.23
2017-10-02T21:14:45.314Z,2.70
2017-10-02T21:17:12.867Z,4.20
2017-10-02T21:19:40.417Z,3.33
2017-10-02T21:22:07.880Z,5.33
2017-10-02T21:24:36.841Z,3.40
2017-10-02T21:27:04.308Z,3.60
2017-10-02T21:29:31.765Z,2.53
2017-10-02T21:31:59.225Z,3.20
2017-10-02T21:34:26.680Z,2.87
2017-10-02T21:36:54.141Z,2.83
2017-10-02T21:39:21.593Z,2.73
2017-10-02T21:41:49.053Z,4.80
2017-10-02T21:44:16.531Z,3.57
2017-10-02T21:46:43.988Z,6.20
2017-10-02T21:49:11.441Z,2.90
2017-10-02T21:51:38.901Z,3.87
2017-10-02T21:54:06.361Z,3.03
2017-10-02T21:56:33.822Z,3.83
2017-10-02T21:59:01.270Z,4.70
2017-10-02T22:02:37.095Z,4.13
2017-10-02T22:05:04.558Z,3.90
2017-10-02T22:07:32.008Z,4.87
2017-10-02T22:09:59.489Z,2.47
2017-10-02T22:12:27.253Z,3.97
2017-10-02T22:14:54.696Z,3.23
2017-10-02T22:17:22.177Z,2.53
2017-10-02T22:19:49.730Z,3.40
2017-10-02T22:22:17.185Z,3.27
2017-10-02T22:24:44.647Z,5.93
2017-10-02T22:27:12.096Z,4.13
2017-10-02T22:29:39.562Z,3.20
2017-10-02T22:32:07.005Z,3.70
2017-10-02T22:34:34.465Z,2.33
2017-10-02T22:37:01.914Z,2.10
2017-10-02T22:39:29.477Z,5.03
2017-10-02T22:41:56.937Z,3.00
2017-10-02T22:44:24.399Z,3.33
2017-10-02T22:46:51.853Z,7.50
2017-10-02T22:49:19.310Z,1.87
2017-10-02T22:51:46.869Z,3.20
2017-10-02T22:54:14.432Z,3.87
2017-10-02T22:56:41.893Z,2.70
2017-10-02T22:59:09.365Z,1.97
2017-10-02T23:01:37.627Z,1.90
2017-10-02T23:04:05.086Z,2.93
2017-10-02T23:06:33.316Z,4.10
2017-10-02T23:09:00.770Z,2.47
2017-10-02T23:11:28.268Z,3.90
2017-10-02T23:13:55.813Z,2.17
2017-10-02T23:16:23.273Z,2.17
2017-10-02T23:18:50.748Z,2.20
2017-10-02T23:21:18.304Z,2.17
2017-10-02T23:23:45.855Z,3.60
2017-10-02T23:26:13.308Z,2.70
2017-10-02T23:28:40.762Z,2.60
2017-10-02T23:31:08.229Z,6.27
2017-10-02T23:33:35.674Z,2.53
2017-10-02T23:36:03.132Z,2.37
2017-10-02T23:38:30.694Z,3.70
2017-10-02T23:40:58.148Z,3.40
2017-10-02T23:43:25.598Z,2.80
2017-10-02T23:45:53.061Z,1.60
2017-10-02T23:48:20.515Z,2.47
2017-10-02T23:50:47.973Z,1.90
2017-10-02T23:53:15.417Z,3.07
2017-10-02T23:55:42.874Z,2.53
2017-10-02T23:58:10.329Z,2.77
